Time;durP1;ratioP1;P1;durP2;ratioP2;P2;SDS_P1;SDS_P2;PMS_P1;PMS_P2;Temp;Humidity;BMP_temperature;BMP_pressure;BME280_temperature;BME280_humidity;BME280_pressure;Samples;Min_cycle;Max_cycle;Signal;HPM_P1;HPM_P2
2022/04/10 00:08:47;;;;;;;24.90;12.30;;;;;;;1.86;70.23;97966.53;432442;1271;110794;-41
2022/04/10 00:18:54;;;;;;;21.20;11.90;;;;;;;1.57;70.07;97980.21;432489;1271;108663;-41
2022/04/10 00:29:02;;;;;;;22.50;9.80;;;;;;;1.30;70.42;97994.17;432611;1271;108739;-41
2022/04/10 00:39:09;;;;;;;14.80;7.50;;;;;;;1.22;70.72;98000.39;432385;1271;97942;-40
2022/04/10 00:49:16;;;;;;;15.10;6.30;;;;;;;1.27;70.95;98009.57;432328;1271;110715;-41
2022/04/10 00:59:24;;;;;;;16.90;7.10;;;;;;;1.34;70.90;98025.26;432535;1271;107957;-41
2022/04/10 01:09:32;;;;;;;22.50;11.10;;;;;;;1.32;71.38;98038.79;432350;1271;96589;-39
2022/04/10 01:19:40;;;;;;;16.70;8.90;;;;;;;1.17;71.39;98045.36;433539;1263;111037;-41
2022/04/10 01:29:47;;;;;;;18.70;9.80;;;;;;;1.01;71.59;98061.84;432653;1270;108995;-42
2022/04/10 01:39:54;;;;;;;16.80;9.00;;;;;;;0.83;71.42;98072.51;432640;1270;108812;-40
2022/04/10 01:50:02;;;;;;;14.30;8.00;;;;;;;0.74;71.73;98076.50;432536;1270;98165;-40
2022/04/10 02:00:09;;;;;;;12.50;7.90;;;;;;;0.76;71.72;98082.48;432406;1270;111078;-40
2022/04/10 02:10:16;;;;;;;15.60;9.00;;;;;;;0.73;71.94;98079.36;432666;1271;108901;-40
2022/04/10 02:20:23;;;;;;;19.40;10.70;;;;;;;0.70;72.12;98084.58;432392;1270;97936;-39
2022/04/10 02:30:30;;;;;;;23.60;13.70;;;;;;;0.61;72.67;98099.91;433143;1269;111165;-40
2022/04/10 02:40:38;;;;;;;27.70;14.80;;;;;;;0.46;73.09;98114.31;433131;1271;108905;-41
2022/04/10 02:50:45;;;;;;;19.40;12.50;;;;;;;0.33;72.93;98109.86;432870;1271;107855;-42
2022/04/10 03:00:52;;;;;;;16.60;10.50;;;;;;;0.32;73.00;98122.84;432818;1271;96686;-41
2022/04/10 03:11:00;;;;;;;16.10;9.90;;;;;;;0.40;73.30;98127.80;432799;1270;109866;-44
2022/04/10 03:21:07;;;;;;;15.40;8.40;;;;;;;0.56;73.30;98138.21;432961;1270;108824;-41
2022/04/10 03:31:14;;;;;;;13.30;7.40;;;;;;;0.62;73.61;98150.73;433092;1271;97929;-40
2022/04/10 03:41:21;;;;;;;24.50;11.50;;;;;;;0.64;73.67;98147.56;432961;1271;108821;-41
2022/04/10 03:51:28;;;;;;;23.70;9.60;;;;;;;0.58;73.74;98154.33;433081;1271;107681;-41
2022/04/10 04:01:35;;;;;;;18.40;9.10;;;;;;;0.34;73.95;98169.95;432946;1270;97934;-41
2022/04/10 04:11:42;;;;;;;13.10;8.40;;;;;;;0.34;74.26;98188.61;433140;1271;111087;-39
2022/04/10 04:21:50;;;;;;;15.20;7.30;;;;;;;0.45;74.13;98199.54;432834;1271;108775;-40
2022/04/10 04:31:57;;;;;;;10.40;6.70;;;;;;;0.68;74.46;98207.70;432935;1270;98057;-41
2022/04/10 04:42:05;;;;;;;12.50;7.70;;;;;;;1.05;74.54;98227.37;433002;1271;108726;-40
2022/04/10 04:52:12;;;;;;;18.00;10.00;;;;;;;1.45;74.37;98237.00;433073;1271;97907;-40
2022/04/10 05:02:18;;;;;;;14.70;10.50;;;;;;;1.69;74.41;98243.33;432515;1271;97930;-41
2022/04/10 05:12:25;;;;;;;13.50;8.30;;;;;;;2.56;74.70;98246.11;432987;1269;111040;-41
2022/04/10 05:22:32;;;;;;;13.20;7.90;;;;;;;3.78;74.48;98251.51;433191;1269;108785;-41
2022/04/10 05:32:42;;;;;;;11.90;7.80;;;;;;;4.63;73.63;98259.02;432875;1271;108235;-40
2022/04/10 05:42:50;;;;;;;18.20;11.00;;;;;;;4.42;72.74;98265.09;432611;1271;96688;-40
2022/04/10 05:52:57;;;;;;;17.00;7.40;;;;;;;3.87;73.01;98270.87;432436;1270;110989;-40
2022/04/10 06:13:12;;;;;;;38.90;21.10;;;;;;;3.72;73.51;98287.90;432592;1269;97929;-42
2022/04/10 06:23:23;;;;;;;13.20;9.00;;;;;;;4.04;73.59;98289.93;432469;1271;111082;-40
2022/04/10 06:33:29;;;;;;;13.20;9.90;;;;;;;4.25;73.24;98293.27;432528;1271;107840;-40
2022/04/10 06:43:36;;;;;;;9.90;5.80;;;;;;;4.89;73.13;98294.77;432431;1269;97913;-40
2022/04/10 06:53:43;;;;;;;18.00;6.90;;;;;;;5.27;72.12;98303.47;432359;1271;111141;-42
2022/04/10 07:03:50;;;;;;;6.90;6.00;;;;;;;5.21;71.42;98311.46;432685;1271;108274;-41
2022/04/10 07:13:57;;;;;;;11.00;5.50;;;;;;;5.29;70.83;98314.34;432895;1270;97972;-40
2022/04/10 07:24:03;;;;;;;6.80;3.90;;;;;;;5.53;70.27;98331.42;432616;1271;111011;-43
2022/04/10 07:34:11;;;;;;;21.80;10.10;;;;;;;5.58;69.76;98340.09;432848;1271;108657;-41
2022/04/10 07:44:18;;;;;;;10.30;7.40;;;;;;;6.08;68.80;98343.49;432667;1271;97906;-40
2022/04/10 07:54:25;;;;;;;9.40;5.50;;;;;;;6.75;67.00;98348.30;432592;1270;110930;-41
2022/04/10 08:04:32;;;;;;;9.90;6.80;;;;;;;7.33;65.67;98354.08;432780;1271;108783;-41
2022/04/10 08:14:39;;;;;;;7.90;6.10;;;;;;;7.51;64.63;98371.53;432451;1270;108817;-41
2022/04/10 08:24:47;;;;;;;7.00;4.40;;;;;;;7.08;62.94;98377.73;432646;1270;98576;-42
2022/04/10 08:45:00;;;;;;;8.50;4.10;;;;;;;7.03;62.17;98395.92;432740;1271;108796;-42
2022/04/10 08:55:06;;;;;;;6.10;4.10;;;;;;;7.29;61.01;98395.18;432858;1269;107851;-41
2022/04/10 09:05:16;;;;;;;9.30;4.00;;;;;;;6.88;60.93;98408.75;432882;1270;97907;-41
2022/04/10 09:15:33;;;;;;;10.80;4.80;;;;;;;7.79;60.62;98388.74;428894;1271;5386978;-41
2022/04/10 09:25:42;;;;;;;11.00;4.80;;;;;;;7.66;59.05;98383.41;432994;1270;108834;-41
2022/04/10 09:35:47;;;;;;;9.40;4.20;;;;;;;7.00;58.76;98392.02;432688;1271;97997;-41
2022/04/10 09:45:58;;;;;;;8.40;4.30;;;;;;;7.01;59.20;98402.21;432879;1269;111276;-44
2022/04/10 09:56:07;;;;;;;12.90;5.60;;;;;;;6.46;59.34;98415.21;432505;1269;108558;-40
2022/04/10 10:06:14;;;;;;;11.40;5.70;;;;;;;5.99;60.47;98422.40;433015;1270;108687;-42
2022/04/10 10:16:22;;;;;;;7.70;5.10;;;;;;;6.34;61.31;98416.48;432595;1270;96671;-41
2022/04/10 10:26:38;;;;;;;14.20;5.90;;;;;;;6.55;61.19;98419.55;432722;1269;111180;-40
2022/04/10 10:36:46;;;;;;;16.20;7.30;;;;;;;6.05;61.91;98422.02;432913;1270;108718;-41
2022/04/10 10:47:00;;;;;;;9.30;5.50;;;;;;;6.06;62.74;98424.15;433078;1270;97903;-41
2022/04/10 10:57:25;;;;;;;10.50;5.60;;;;;;;6.43;62.73;98419.48;433168;1271;97512;-44
2022/04/10 11:27:45;;;;;;;4.30;2.70;;;;;;;7.66;56.76;98411.58;432919;1271;108781;-44
2022/04/10 11:37:55;;;;;;;4.10;1.90;;;;;;;6.99;56.21;98422.81;432962;1270;97928;-40
2022/04/10 11:48:01;;;;;;;;;;;;;;;7.01;56.14;98424.77;433123;1271;109623;-41
2022/04/10 12:08:19;;;;;;;5.20;3.80;;;;;;;7.18;58.63;98424.21;433051;1270;108642;-41
2022/04/10 12:18:28;;;;;;;7.60;3.20;;;;;;;7.97;58.58;98406.84;433176;1271;97759;-43
2022/04/10 12:38:41;;;;;;;5.00;3.80;;;;;;;7.31;57.47;98407.42;433245;1269;108983;-41
2022/04/10 12:48:49;;;;;;;18.10;9.80;;;;;;;7.23;57.72;98408.81;433268;1270;108966;-41
2022/04/10 12:58:57;;;;;;;8.80;5.90;;;;;;;7.80;58.48;98397.61;433123;1269;96699;-40
2022/04/10 13:09:18;;;;;;;10.00;6.10;;;;;;;8.14;56.65;98388.16;432952;1270;111136;-41
2022/04/10 13:19:26;;;;;;;18.00;8.90;;;;;;;8.50;56.74;98381.67;433189;1271;107267;-42
2022/04/10 13:29:34;;;;;;;6.60;4.50;;;;;;;8.28;55.68;98393.79;432776;1269;97523;-41
2022/04/10 13:39:41;;;;;;;9.40;5.80;;;;;;;7.92;56.56;98391.66;433141;1270;96849;-40
2022/04/10 13:49:48;;;;;;;4.70;2.30;;;;;;;8.37;55.05;98383.30;432943;1270;109656;-41
2022/04/10 13:59:55;;;;;;;7.30;3.20;;;;;;;8.25;53.01;98391.48;432946;1270;108720;-43
2022/04/10 14:10:03;;;;;;;14.10;6.30;;;;;;;7.83;53.26;98401.23;433089;1268;107647;-40
2022/04/10 14:20:12;;;;;;;11.30;5.50;;;;;;;6.74;56.78;98435.86;432914;1271;96680;-41
2022/04/10 14:30:19;;;;;;;11.10;5.10;;;;;;;5.95;59.47;98448.30;433221;1269;111051;-46
2022/04/10 14:40:28;;;;;;;7.40;3.40;;;;;;;5.97;60.23;98441.03;433022;1270;108841;-43
2022/04/10 14:50:35;;;;;;;11.80;5.90;;;;;;;6.21;60.02;98448.02;433125;1269;108734;-42
2022/04/10 15:00:42;;;;;;;12.50;5.00;;;;;;;6.27;59.74;98456.69;433334;1270;96692;-44
2022/04/10 15:10:50;;;;;;;8.60;3.10;;;;;;;5.95;61.97;98480.00;433306;1269;111309;-42
2022/04/10 15:21:05;;;;;;;10.50;7.00;;;;;;;5.45;63.33;98478.16;433322;1269;108942;-40
2022/04/10 15:31:11;;;;;;;8.10;5.50;;;;;;;5.32;63.41;98490.24;433126;1270;98003;-40
2022/04/10 15:41:18;;;;;;;5.90;4.60;;;;;;;5.27;63.90;98487.23;433201;1271;110962;-44
2022/04/10 15:51:25;;;;;;;9.90;5.50;;;;;;;5.24;64.13;98484.91;432952;1270;109024;-40
2022/04/10 16:01:32;;;;;;;8.60;5.60;;;;;;;5.19;64.37;98486.94;432958;1269;107129;-41
2022/04/10 16:11:40;;;;;;;6.80;4.10;;;;;;;5.29;64.50;98488.84;433051;1269;97921;-41
2022/04/10 16:21:47;;;;;;;6.90;4.30;;;;;;;5.39;64.47;98490.29;432854;1270;109237;-41
2022/04/10 16:31:56;;;;;;;14.30;9.60;;;;;;;5.42;64.51;98494.09;433050;1270;97993;-41
2022/04/10 16:42:03;;;;;;;14.40;7.90;;;;;;;5.36;64.70;98493.15;433164;1270;111051;-41
2022/04/10 16:52:10;;;;;;;15.70;9.30;;;;;;;5.28;64.61;98490.00;433202;1269;109202;-41
2022/04/10 17:02:16;;;;;;;19.50;10.10;;;;;;;5.13;64.78;98493.38;433186;1269;108374;-41
2022/04/10 17:12:22;;;;;;;32.20;17.40;;;;;;;4.91;64.75;98501.98;433075;1270;97462;-43
2022/04/10 17:22:30;;;;;;;29.30;17.80;;;;;;;4.68;64.96;98515.19;433108;1270;111096;-41
2022/04/10 17:32:40;;;;;;;21.40;11.80;;;;;;;4.59;65.21;98520.08;433017;1270;109011;-42
2022/04/10 17:42:47;;;;;;;31.10;16.60;;;;;;;4.59;65.40;98525.30;432846;1270;97527;-41
2022/04/10 17:52:54;;;;;;;49.90;23.50;;;;;;;4.52;65.47;98533.52;433173;1269;110717;-41
2022/04/10 18:03:00;;;;;;;71.70;39.00;;;;;;;4.28;65.64;98542.77;432833;1269;108836;-42
2022/04/10 18:13:07;;;;;;;64.10;33.70;;;;;;;4.10;65.68;98558.78;432826;1268;108825;-41
2022/04/10 18:23:15;;;;;;;64.00;31.40;;;;;;;3.88;65.73;98570.02;432817;1271;97903;-41
2022/04/10 18:33:22;;;;;;;103.40;45.10;;;;;;;3.63;65.87;98581.17;432774;1269;111119;-41
2022/04/10 18:43:30;;;;;;;149.30;67.50;;;;;;;3.36;66.12;98590.02;432930;1269;108820;-41
2022/04/10 18:53:37;;;;;;;56.70;27.40;;;;;;;3.26;66.41;98599.93;432888;1269;108539;-42
2022/04/10 19:03:47;;;;;;;35.90;17.10;;;;;;;3.36;66.38;98609.25;432982;1270;97583;-40
2022/04/10 19:13:53;;;;;;;47.80;19.40;;;;;;;3.28;66.40;98624.88;433227;1269;110095;-40
2022/04/10 19:34:05;;;;;;;26.40;11.10;;;;;;;2.92;66.87;98631.50;432992;1269;98111;-41
2022/04/10 20:04:25;;;;;;;20.20;9.60;;;;;;;2.26;67.19;98651.88;432918;1270;109168;-41
2022/04/10 20:24:38;;;;;;;32.90;11.00;;;;;;;2.10;67.78;98655.13;432855;1270;108393;-40
2022/04/10 20:34:45;;;;;;;25.60;11.60;;;;;;;2.12;68.12;98658.86;433117;1271;97952;-43
2022/04/10 20:44:53;;;;;;;44.00;18.70;;;;;;;2.12;68.18;98659.27;433230;1269;111067;-41
2022/04/10 20:55:00;;;;;;;23.50;11.00;;;;;;;1.90;68.18;98662.77;432988;1270;108904;-41
2022/04/10 21:05:09;;;;;;;20.80;8.40;;;;;;;1.59;68.43;98665.61;433176;1269;108891;-44
2022/04/10 21:15:16;;;;;;;23.90;9.30;;;;;;;1.30;68.64;98664.88;432786;1269;613399;-41
2022/04/10 21:25:21;;;;;;;33.90;14.00;;;;;;;1.13;68.92;98668.48;433125;1271;111182;-41
2022/04/10 21:35:29;;;;;;;26.60;10.70;;;;;;;1.10;69.27;98681.67;432944;1269;109099;-41
2022/04/10 21:45:36;;;;;;;7.60;4.80;;;;;;;1.21;69.69;98676.14;433173;1270;97952;-42
2022/04/10 21:55:43;;;;;;;11.30;5.30;;;;;;;1.28;69.68;98674.00;433039;1270;108785;-42
2022/04/10 22:05:51;;;;;;;15.10;7.50;;;;;;;1.22;69.84;98675.45;433053;1269;98005;-41
2022/04/10 22:15:58;;;;;;;33.60;13.60;;;;;;;1.06;69.94;98682.99;432971;1270;97805;-43
2022/04/10 22:26:06;;;;;;;31.60;13.90;;;;;;;0.92;70.53;98686.25;433158;1270;111259;-42
2022/04/10 22:46:20;;;;;;;43.00;13.40;;;;;;;1.03;71.07;98703.84;433228;1271;108661;-40
2022/04/10 22:56:27;;;;;;;12.00;6.40;;;;;;;1.22;71.27;98697.70;433201;1271;97900;-41
2022/04/10 23:06:34;;;;;;;12.40;6.00;;;;;;;1.43;71.51;98694.90;433313;1271;108874;-41
2022/04/10 23:16:41;;;;;;;19.80;8.20;;;;;;;1.43;71.35;98695.01;433277;1271;97897;-41
2022/04/10 23:26:48;;;;;;;12.40;6.60;;;;;;;1.28;71.46;98695.52;433116;1270;97919;-41
2022/04/10 23:36:55;;;;;;;14.80;7.40;;;;;;;1.03;71.37;98699.80;433112;1271;111059;-41
2022/04/10 23:47:03;;;;;;;17.50;7.70;;;;;;;0.96;72.08;98704.55;433252;1271;107566;-43
2022/04/10 23:57:10;;;;;;;13.80;6.50;;;;;;;1.08;72.13;98712.08;433263;1270;108730;-41
